createdAt,value
2022-11-05T00:01:30.961Z,101624.34
2022-11-05T00:04:19.203Z,101635.03
2022-11-05T00:07:07.819Z,101633.34
2022-11-05T00:09:38.132Z,101644.03
2022-11-05T00:12:32.906Z,101628.75
2022-11-05T00:15:21.144Z,101631.88
2022-11-05T00:17:51.619Z,101629.78
2022-11-05T00:20:21.830Z,101628.31
2022-11-05T00:23:11.243Z,101638.53
2022-11-05T00:25:41.896Z,101633.91
2022-11-05T00:28:12.355Z,101632.34
2022-11-05T00:30:42.470Z,101633.47
2022-11-05T00:33:13.374Z,101633.25
2022-11-05T00:35:43.703Z,101638.66
2022-11-05T00:38:14.265Z,101633.03
2022-11-05T00:40:44.401Z,101634.59
2022-11-05T00:43:32.906Z,101635.28
2022-11-05T00:46:02.999Z,101632.22
2022-11-05T00:48:51.687Z,101633.75
2022-11-05T00:51:24.719Z,101631.78
2022-11-05T00:53:55.297Z,101630.88
2022-11-05T00:56:25.371Z,101630.41
2022-11-05T00:58:57.604Z,101606.25
2022-11-05T01:01:27.733Z,101633.19
2022-11-05T01:03:58.340Z,101641.19
2022-11-05T01:06:28.461Z,101626.03
2022-11-05T01:08:58.927Z,101640.16
2022-11-05T01:11:34.925Z,101633.75
2022-11-05T01:14:08.936Z,101629.78
2022-11-05T01:16:40.001Z,101633.63
2022-11-05T01:19:12.614Z,101635.25
2022-11-05T01:21:42.740Z,101630.63
2022-11-05T01:24:12.663Z,101629.28
2022-11-05T01:26:42.446Z,101613.63
2022-11-05T01:29:12.845Z,101624.56
2022-11-05T01:31:45.706Z,101623.22
2022-11-05T01:34:15.846Z,101617.72
2022-11-05T01:36:45.719Z,101622.94
2022-11-05T01:39:15.537Z,101611.56
2022-11-05T01:41:46.083Z,101620.25
2022-11-05T01:44:53.200Z,101617.25
2022-11-05T01:47:50.223Z,101615.94
2022-11-05T01:50:58.272Z,101615.94
2022-11-05T01:53:49.478Z,101602.91
2022-11-05T01:56:39.056Z,101601.88
2022-11-05T01:59:15.706Z,101596.00
2022-11-05T02:01:46.609Z,101586.19
2022-11-05T02:04:23.939Z,101591.88
2022-11-05T02:06:54.641Z,101590.59
2022-11-05T02:09:31.108Z,101581.06
2022-11-05T02:12:01.607Z,101583.72
2022-11-05T02:14:31.570Z,101581.00
2022-11-05T02:17:13.369Z,101578.13
2022-11-05T02:20:24.654Z,101576.94
2022-11-05T02:23:24.573Z,101555.09
2022-11-05T02:26:05.681Z,101572.09
2022-11-05T02:29:00.246Z,101537.44
2022-11-05T02:32:20.712Z,101538.38
2022-11-05T02:34:57.112Z,101563.16
2022-11-05T02:37:47.681Z,101568.59
2022-11-05T02:40:28.899Z,101551.19
2022-11-05T02:43:22.324Z,101548.38
2022-11-05T02:45:58.711Z,101557.50
2022-11-05T02:48:38.160Z,101556.25
2022-11-05T02:51:34.061Z,101550.03
2022-11-05T02:54:11.143Z,101556.91
2022-11-05T02:56:46.397Z,101554.81
2022-11-05T02:59:16.381Z,101545.38
2022-11-05T03:01:48.739Z,101546.69
2022-11-05T03:04:21.046Z,101543.06
2022-11-05T03:07:13.615Z,101542.03
2022-11-05T03:09:52.588Z,101543.66
2022-11-05T03:12:55.295Z,101533.63
2022-11-05T03:15:58.128Z,101534.53
2022-11-05T03:18:52.695Z,101528.34
2022-11-05T03:21:30.835Z,101522.59
2022-11-05T03:24:07.759Z,101521.78
2022-11-05T03:26:51.769Z,101518.91
2022-11-05T03:29:24.723Z,101512.53
2022-11-05T03:32:00.961Z,101511.63
2022-11-05T03:34:39.849Z,101503.44
2022-11-05T03:37:11.251Z,101512.19
2022-11-05T03:39:45.333Z,101506.69
2022-11-05T03:42:18.615Z,101507.97
2022-11-05T03:44:58.911Z,101490.59
2022-11-05T03:47:35.754Z,101499.09
2022-11-05T03:50:24.354Z,101492.09
2022-11-05T03:53:21.963Z,101492.59
2022-11-05T03:56:09.558Z,101485.41
2022-11-05T03:58:45.322Z,101484.72
2022-11-05T04:01:16.069Z,101477.47
2022-11-05T04:03:48.874Z,101484.72
2022-11-05T04:06:37.454Z,101479.53
2022-11-05T04:09:25.739Z,101475.91
2022-11-05T04:12:14.587Z,101474.38
2022-11-05T04:14:45.042Z,101471.25
2022-11-05T04:17:14.962Z,101476.88
2022-11-05T04:20:06.940Z,101469.91
2022-11-05T04:22:56.183Z,101468.91
2022-11-05T04:25:26.600Z,101466.84
2022-11-05T04:28:01.570Z,101466.78
2022-11-05T04:30:31.999Z,101462.84
2022-11-05T04:33:06.044Z,101460.06
2022-11-05T04:35:39.600Z,101462.00
2022-11-05T04:38:12.834Z,101452.34
2022-11-05T04:40:43.733Z,101417.78
2022-11-05T04:43:19.553Z,101437.91
2022-11-05T04:45:51.013Z,101442.56
2022-11-05T04:48:21.098Z,101438.69
2022-11-05T04:50:50.832Z,101434.06
2022-11-05T04:53:21.927Z,101438.53
2022-11-05T04:55:51.415Z,101440.03
2022-11-05T04:58:21.858Z,101433.50
2022-11-05T05:00:52.020Z,101432.00
2022-11-05T05:03:22.594Z,101420.88
2022-11-05T05:05:53.937Z,101434.22
2022-11-05T05:08:24.657Z,101425.22
2022-11-05T05:10:54.604Z,101425.59
2022-11-05T05:13:25.089Z,101427.78
2022-11-05T05:15:54.833Z,101406.94
2022-11-05T05:18:27.376Z,101429.53
2022-11-05T05:21:19.491Z,101425.56
2022-11-05T05:23:50.398Z,101420.16
2022-11-05T05:26:20.506Z,101425.63
2022-11-05T05:28:50.949Z,101424.19
2022-11-05T05:31:21.233Z,101422.88
2022-11-05T05:33:51.166Z,101406.91
2022-11-05T05:36:20.912Z,101413.47
2022-11-05T05:38:51.050Z,101404.06
2022-11-05T05:41:22.192Z,101421.13
2022-11-05T05:43:52.635Z,101427.00
2022-11-05T05:46:22.973Z,101425.84
2022-11-05T05:48:53.844Z,101439.97
2022-11-05T05:51:24.302Z,101432.28
2022-11-05T05:53:55.910Z,101436.09
2022-11-05T05:56:26.412Z,101434.63
2022-11-05T05:58:56.663Z,101438.22
2022-11-05T06:01:26.555Z,101432.47
2022-11-05T06:03:56.372Z,101430.75
2022-11-05T06:06:26.357Z,101425.44
2022-11-05T06:08:57.605Z,101435.34
2022-11-05T06:11:27.860Z,101445.63
2022-11-05T06:13:58.779Z,101440.63
2022-11-05T06:16:29.731Z,101433.88
2022-11-05T06:19:00.147Z,101435.00
2022-11-05T06:21:30.281Z,101447.72
2022-11-05T06:24:03.404Z,101449.84
2022-11-05T06:26:33.466Z,101412.06
2022-11-05T06:29:03.881Z,101447.50
2022-11-05T06:31:33.915Z,101449.84
2022-11-05T06:34:04.422Z,101449.44
2022-11-05T06:36:34.904Z,101451.66
2022-11-05T06:39:05.716Z,101454.25
2022-11-05T06:41:56.878Z,101447.84
2022-11-05T06:44:29.409Z,101457.97
2022-11-05T06:46:59.374Z,101459.06
2022-11-05T06:49:29.715Z,101448.88
2022-11-05T06:52:00.124Z,101444.81
2022-11-05T06:54:30.473Z,101448.03
2022-11-05T06:57:00.450Z,101443.97
2022-11-05T06:59:30.804Z,101445.16
2022-11-05T07:02:00.938Z,101442.78
2022-11-05T07:04:31.631Z,101453.47
2022-11-05T07:07:04.691Z,101444.19
2022-11-05T07:09:35.154Z,101434.34
2022-11-05T07:12:05.415Z,101439.25
2022-11-05T07:14:36.285Z,101448.47
2022-11-05T07:17:07.273Z,101452.63
2022-11-05T07:19:37.613Z,101460.03
2022-11-05T07:22:07.618Z,101454.78
2022-11-05T07:24:38.254Z,101459.28
2022-11-05T07:27:08.335Z,101468.28
2022-11-05T07:29:38.744Z,101463.88
2022-11-05T07:32:08.946Z,101462.25
2022-11-05T07:34:39.355Z,101461.53
2022-11-05T07:37:09.414Z,101470.94
2022-11-05T07:39:39.805Z,101462.38
2022-11-05T07:42:15.277Z,101467.72
2022-11-05T07:44:45.657Z,101479.59
2022-11-05T07:47:15.667Z,101477.81
2022-11-05T07:50:15.697Z,101479.16
2022-11-05T07:52:45.887Z,101472.84
2022-11-05T07:55:17.184Z,101476.97
2022-11-05T07:57:52.511Z,101480.97
2022-11-05T08:00:25.043Z,101486.06
2022-11-05T08:03:08.539Z,101478.53
2022-11-05T08:05:51.085Z,101489.72
2022-11-05T08:08:22.218Z,101496.69
2022-11-05T08:10:53.149Z,101498.38
2022-11-05T08:13:23.247Z,101500.25
2022-11-05T08:15:53.701Z,101502.59
2022-11-05T08:18:23.724Z,101499.91
2022-11-05T08:20:54.123Z,101514.44
2022-11-05T08:23:24.188Z,101508.63
2022-11-05T08:25:54.863Z,101503.84
2022-11-05T08:28:26.594Z,101501.75
2022-11-05T08:30:58.346Z,101510.06
2022-11-05T08:33:30.595Z,101481.47
2022-11-05T08:36:04.732Z,101520.00
2022-11-05T08:38:34.895Z,101526.38
2022-11-05T08:41:05.982Z,101527.63
2022-11-05T08:43:36.072Z,101522.47
2022-11-05T08:46:05.914Z,101529.41
2022-11-05T08:48:36.453Z,101533.00
2022-11-05T08:51:06.533Z,101536.84
2022-11-05T08:53:37.132Z,101546.41
2022-11-05T08:56:07.311Z,101545.34
2022-11-05T08:58:37.297Z,101555.69
2022-11-05T09:01:07.556Z,101552.25
2022-11-05T09:03:38.384Z,101565.34
2022-11-05T09:06:08.949Z,101565.16
2022-11-05T09:08:39.323Z,101572.16
2022-11-05T09:11:09.282Z,101567.69
2022-11-05T09:13:39.857Z,101573.22
2022-11-05T09:16:26.401Z,101591.84
2022-11-05T09:18:58.046Z,101581.50
2022-11-05T09:21:28.074Z,101588.28
2022-11-05T09:23:58.230Z,101591.44
2022-11-05T09:26:28.698Z,101603.00
2022-11-05T09:28:58.706Z,101607.03
2022-11-05T09:31:29.399Z,101608.50
2022-11-05T09:33:59.390Z,101614.81
2022-11-05T09:36:29.832Z,101609.59
2022-11-05T09:38:59.963Z,101616.63
2022-11-05T09:41:48.386Z,101626.84
2022-11-05T09:44:20.829Z,101593.19
2022-11-05T09:47:04.411Z,101631.63
2022-11-05T09:49:42.801Z,101629.81
2022-11-05T09:52:21.047Z,101631.59
2022-11-05T09:54:52.710Z,101640.13
2022-11-05T09:57:50.519Z,101642.66
2022-11-05T10:00:20.758Z,101644.03
2022-11-05T10:02:58.630Z,101641.88
2022-11-05T10:05:29.985Z,101642.22
2022-11-05T10:08:14.089Z,101647.94
2022-11-05T10:10:51.480Z,101654.91
2022-11-05T10:13:45.849Z,101657.06
2022-11-05T10:16:21.593Z,101669.50
2022-11-05T10:19:17.199Z,101659.63
2022-11-05T10:24:38.109Z,101652.41
2022-11-05T10:27:16.929Z,101665.34
2022-11-05T10:29:48.483Z,101673.69
2022-11-05T10:32:35.413Z,101664.09
2022-11-05T10:35:09.422Z,101667.47
2022-11-05T10:37:41.190Z,101670.16
2022-11-05T10:40:36.211Z,101686.53
2022-11-05T10:43:41.970Z,101681.63
2022-11-05T10:46:33.641Z,101685.81
2022-11-05T10:49:44.734Z,101692.34
2022-11-05T10:52:32.752Z,101684.69
2022-11-05T10:55:24.877Z,101685.50
2022-11-05T10:57:55.642Z,101699.75
2022-11-05T11:00:29.548Z,101685.38
2022-11-05T11:03:02.799Z,101691.31
2022-11-05T11:05:39.887Z,101670.03
2022-11-05T11:08:13.075Z,101698.25
2022-11-05T11:11:07.961Z,101699.94
2022-11-05T11:13:59.601Z,101693.69
2022-11-05T11:16:35.014Z,101697.19
2022-11-05T11:19:10.764Z,101699.44
2022-11-05T11:21:42.891Z,101693.50
2022-11-05T11:24:24.298Z,101692.75
2022-11-05T11:26:54.394Z,101693.47
2022-11-05T11:29:30.013Z,101694.38
2022-11-05T11:32:04.194Z,101692.03
2022-11-05T11:34:43.002Z,101697.50
2022-11-05T11:37:19.686Z,101694.66
2022-11-05T11:40:04.138Z,101702.19
2022-11-05T11:42:42.157Z,101698.31
2022-11-05T11:45:20.411Z,101694.34
2022-11-05T11:47:52.185Z,101671.91
2022-11-05T11:50:44.379Z,101701.38
2022-11-05T11:53:23.140Z,101694.09
2022-11-05T11:56:20.361Z,101696.25
2022-11-05T11:59:03.995Z,101694.47
2022-11-05T12:01:46.802Z,101682.88
2022-11-05T12:04:41.353Z,101679.81
2022-11-05T12:07:45.345Z,101681.41
2022-11-05T12:10:24.340Z,101682.00
2022-11-05T12:13:00.424Z,101677.25
2022-11-05T12:16:20.718Z,101675.78
2022-11-05T12:18:59.801Z,101670.66
2022-11-05T12:21:53.488Z,101678.47
2022-11-05T12:24:48.723Z,101667.91
2022-11-05T12:27:49.486Z,101669.00
2022-11-05T12:30:24.686Z,101671.91
2022-11-05T12:33:48.676Z,101674.34
2022-11-05T12:36:34.251Z,101672.41
2022-11-05T12:39:31.214Z,101675.16
2022-11-05T12:42:16.209Z,101663.75
2022-11-05T12:45:03.434Z,101664.00
2022-11-05T12:47:45.685Z,101673.41
2022-11-05T12:50:18.256Z,101674.63
2022-11-05T12:53:00.302Z,101665.25
2022-11-05T12:55:48.585Z,101656.91
2022-11-05T12:58:59.754Z,101661.63
2022-11-05T13:01:38.936Z,101620.06
2022-11-05T13:04:32.453Z,101651.81
2022-11-05T13:07:07.114Z,101646.13
2022-11-05T13:09:50.859Z,101645.00
2022-11-05T13:12:22.400Z,101636.19
2022-11-05T13:15:00.377Z,101612.94
2022-11-05T13:17:40.198Z,101633.03
2022-11-05T13:20:31.012Z,101636.66
2022-11-05T13:23:08.396Z,101636.03
2022-11-05T13:25:46.848Z,101631.28
2022-11-05T13:28:38.526Z,101630.88
2022-11-05T13:31:15.088Z,101627.78
2022-11-05T13:33:47.674Z,101628.09
2022-11-05T13:37:06.792Z,101620.63
2022-11-05T13:39:44.644Z,101608.31
2022-11-05T13:42:41.062Z,101621.09
2022-11-05T13:45:47.499Z,101613.53
2022-11-05T13:48:46.759Z,101603.03
2022-11-05T13:51:38.860Z,101606.88
2022-11-05T13:54:34.395Z,101599.50
2022-11-05T13:57:13.316Z,101598.06
2022-11-05T14:00:05.758Z,101584.28
2022-11-05T14:02:51.539Z,101593.16
2022-11-05T14:05:34.383Z,101578.59
2022-11-05T14:08:17.743Z,101579.28
2022-11-05T14:11:21.231Z,101577.00
2022-11-05T14:13:56.615Z,101576.50
2022-11-05T14:16:41.451Z,101555.84
2022-11-05T14:19:20.806Z,101559.03
2022-11-05T14:21:56.458Z,101552.31
2022-11-05T14:24:39.885Z,101556.34
2022-11-05T14:27:11.423Z,101547.94
2022-11-05T14:29:51.803Z,101536.72
2022-11-05T14:32:22.253Z,101540.06
2022-11-05T14:35:26.282Z,101535.97
2022-11-05T14:38:01.637Z,101534.22
2022-11-05T14:40:39.950Z,101528.91
2022-11-05T14:43:16.782Z,101520.31
2022-11-05T14:46:07.768Z,101514.44
2022-11-05T14:49:09.449Z,101506.63
2022-11-05T14:51:47.835Z,101501.63
2022-11-05T14:54:33.305Z,101506.81
2022-11-05T14:57:07.342Z,101499.31
2022-11-05T14:59:59.735Z,101458.25
2022-11-05T15:02:39.800Z,101487.31
2022-11-05T15:05:42.518Z,101480.94
2022-11-05T15:08:28.611Z,101479.13
2022-11-05T15:11:10.080Z,101469.69
2022-11-05T15:13:53.405Z,101471.56
2022-11-05T15:16:50.594Z,101472.56
2022-11-05T15:19:23.897Z,101456.47
2022-11-05T15:21:56.259Z,101457.09
2022-11-05T15:24:31.299Z,101459.66
2022-11-05T15:27:18.848Z,101443.59
2022-11-05T15:29:50.053Z,101444.44
2022-11-05T15:32:25.154Z,101452.63
2022-11-05T15:34:57.164Z,101439.75
2022-11-05T15:37:29.062Z,101444.53
2022-11-05T15:40:00.298Z,101442.84
2022-11-05T15:42:31.032Z,101440.28
2022-11-05T15:45:02.120Z,101428.47
2022-11-05T15:47:37.932Z,101427.94
2022-11-05T15:50:16.640Z,101432.91
2022-11-05T15:53:04.813Z,101430.09
2022-11-05T15:55:58.714Z,101422.22
2022-11-05T15:58:29.439Z,101404.97
2022-11-05T16:00:59.655Z,101411.59
2022-11-05T16:03:36.694Z,101406.28
2022-11-05T16:06:13.708Z,101412.97
2022-11-05T16:08:48.834Z,101417.00
2022-11-05T16:11:25.950Z,101404.28
2022-11-05T16:14:19.514Z,101398.81
2022-11-05T16:16:49.886Z,101411.69
2022-11-05T16:19:40.187Z,101398.06
2022-11-05T16:22:11.545Z,101396.16
2022-11-05T16:24:41.705Z,101380.59
2022-11-05T16:27:24.793Z,101381.78
2022-11-05T16:29:57.493Z,101380.00
2022-11-05T16:32:32.755Z,101371.88
2022-11-05T16:35:05.741Z,101375.53
2022-11-05T16:37:45.194Z,101366.78
2022-11-05T16:40:23.847Z,101367.91
2022-11-05T16:42:55.156Z,101364.63
2022-11-05T16:45:27.020Z,101362.72
2022-11-05T16:47:57.707Z,101356.59
2022-11-05T16:50:33.187Z,101364.84
2022-11-05T16:53:03.811Z,101358.66
2022-11-05T16:55:36.866Z,101354.44
2022-11-05T16:58:15.946Z,101342.56
2022-11-05T17:00:46.001Z,101346.69
2022-11-05T17:03:16.839Z,101342.31
2022-11-05T17:05:47.481Z,101334.44
2022-11-05T17:08:17.831Z,101333.44
2022-11-05T17:10:48.390Z,101330.03
2022-11-05T17:13:19.907Z,101342.19
2022-11-05T17:15:52.239Z,101334.31
2022-11-05T17:18:22.658Z,101328.38
2022-11-05T17:20:55.837Z,101329.75
2022-11-05T17:23:31.297Z,101331.00
2022-11-05T17:26:05.650Z,101333.75
2022-11-05T17:28:36.438Z,101309.16
2022-11-05T17:31:14.581Z,101323.63
2022-11-05T17:33:45.633Z,101319.88
2022-11-05T17:36:17.586Z,101316.78
2022-11-05T17:38:47.693Z,101309.22
2022-11-05T17:41:21.134Z,101304.84
2022-11-05T17:43:59.005Z,101302.75
2022-11-05T17:46:30.037Z,101300.66
2022-11-05T17:49:00.230Z,101308.00
2022-11-05T17:51:33.242Z,101294.47
2022-11-05T17:54:03.421Z,101291.56
2022-11-05T17:56:35.598Z,101295.56
2022-11-05T17:59:08.350Z,101299.78
2022-11-05T18:01:44.397Z,101290.72
2022-11-05T18:04:14.654Z,101263.16
2022-11-05T18:06:45.249Z,101282.16
2022-11-05T18:09:16.078Z,101291.03
2022-11-05T18:11:46.751Z,101288.44
2022-11-05T18:14:23.732Z,101300.13
2022-11-05T18:17:00.384Z,101281.22
2022-11-05T18:19:31.234Z,101280.75
2022-11-05T18:22:01.755Z,101280.97
2022-11-05T18:24:31.986Z,101281.84
2022-11-05T18:27:02.555Z,101274.06
2022-11-05T18:29:32.617Z,101279.06
2022-11-05T18:32:03.302Z,101274.72
2022-11-05T18:34:33.989Z,101274.28
2022-11-05T18:37:04.814Z,101266.97
2022-11-05T18:39:34.886Z,101273.31
2022-11-05T18:42:05.487Z,101272.69
2022-11-05T18:44:39.173Z,101266.56
2022-11-05T18:47:10.342Z,101284.09
2022-11-05T18:49:43.361Z,101274.25
2022-11-05T18:52:14.307Z,101273.94
2022-11-05T18:54:44.653Z,101268.16
2022-11-05T18:57:15.226Z,101273.59
2022-11-05T18:59:48.044Z,101273.03
2022-11-05T19:02:18.730Z,101277.13
2022-11-05T19:05:13.873Z,101271.75
2022-11-05T19:07:40.825Z,101281.97
2022-11-05T19:10:11.275Z,101270.81
2022-11-05T19:12:41.915Z,101271.75
2022-11-05T19:15:12.342Z,101269.75
2022-11-05T19:17:42.897Z,101272.34
2022-11-05T19:20:16.007Z,101288.78
2022-11-05T19:22:46.533Z,101274.06
2022-11-05T19:25:16.591Z,101280.00
2022-11-05T19:27:46.961Z,101274.47
2022-11-05T19:30:17.450Z,101282.66
2022-11-05T19:32:48.061Z,101282.88
2022-11-05T19:35:18.570Z,101296.41
2022-11-05T19:37:51.420Z,101284.03
2022-11-05T19:40:22.258Z,101294.69
2022-11-05T19:42:55.126Z,101265.63
2022-11-05T19:48:19.487Z,101278.34
2022-11-05T19:50:50.112Z,101294.59
2022-11-05T19:53:21.009Z,101295.34
2022-11-05T19:55:54.067Z,101286.16
2022-11-05T19:58:25.656Z,101260.63
2022-11-05T20:00:57.278Z,101303.88
2022-11-05T20:03:27.825Z,101299.84
2022-11-05T20:06:08.222Z,101307.97
2022-11-05T20:08:53.308Z,101299.19
2022-11-05T20:11:29.036Z,101299.91
2022-11-05T20:13:59.817Z,101310.59
2022-11-05T20:16:38.016Z,101306.38
2022-11-05T20:19:15.514Z,101299.66
2022-11-05T20:21:45.832Z,101304.16
2022-11-05T20:24:24.236Z,101299.56
2022-11-05T20:26:56.817Z,101312.63
2022-11-05T20:29:34.706Z,101322.81
2022-11-05T20:32:08.689Z,101318.22
2022-11-05T20:34:39.401Z,101309.16
2022-11-05T20:37:09.802Z,101328.22
2022-11-05T20:39:40.595Z,101331.47
2022-11-05T20:42:10.754Z,101331.28
2022-11-05T20:44:42.130Z,101338.50
2022-11-05T20:47:12.825Z,101339.44
2022-11-05T20:49:43.918Z,101332.81
2022-11-05T20:52:16.271Z,101342.94
2022-11-05T20:54:48.266Z,101341.75
2022-11-05T20:57:18.357Z,101355.28
2022-11-05T20:59:49.406Z,101347.91
2022-11-05T21:02:21.427Z,101353.88
2022-11-05T21:04:53.067Z,101355.84
2022-11-05T21:07:24.051Z,101366.44
2022-11-05T21:09:54.818Z,101360.28
2022-11-05T21:12:24.915Z,101372.63
2022-11-05T21:14:55.299Z,101377.28
2022-11-05T21:17:25.316Z,101387.13
2022-11-05T21:19:55.688Z,101384.47
2022-11-05T21:22:25.859Z,101392.56
2022-11-05T21:24:57.940Z,101384.69
2022-11-05T21:27:28.198Z,101386.66
2022-11-05T21:29:58.625Z,101391.53
2022-11-05T21:32:28.750Z,101383.91
2022-11-05T21:34:59.611Z,101394.03
2022-11-05T21:37:29.912Z,101400.41
2022-11-05T21:40:00.344Z,101388.75
2022-11-05T21:42:31.469Z,101393.84
2022-11-05T21:45:02.545Z,101405.78
2022-11-05T21:47:32.626Z,101394.06
2022-11-05T21:50:03.236Z,101386.25
2022-11-05T21:52:51.869Z,101397.94
2022-11-05T21:55:42.426Z,101399.78
2022-11-05T21:58:37.724Z,101403.84
2022-11-05T22:01:08.274Z,101405.50
2022-11-05T22:03:37.977Z,101416.47
2022-11-05T22:06:08.069Z,101413.00
2022-11-05T22:08:38.723Z,101417.53
2022-11-05T22:11:08.751Z,101411.41
2022-11-05T22:13:39.132Z,101423.78
2022-11-05T22:16:09.842Z,101423.53
2022-11-05T22:18:40.249Z,101405.41
2022-11-05T22:21:10.246Z,101424.25
2022-11-05T22:23:43.166Z,101424.38
2022-11-05T22:26:13.116Z,101426.63
2022-11-05T22:28:43.198Z,101426.13
2022-11-05T22:31:17.850Z,101432.66
2022-11-05T22:33:48.262Z,101439.19
2022-11-05T22:36:18.800Z,101437.13
2022-11-05T22:38:48.881Z,101450.22
2022-11-05T22:41:21.634Z,101447.28
2022-11-05T22:43:51.677Z,101456.00
2022-11-05T22:46:25.638Z,101458.53
2022-11-05T22:48:57.303Z,101434.56
2022-11-05T22:51:31.403Z,101460.84
2022-11-05T22:54:02.342Z,101460.88
2022-11-05T22:56:37.118Z,101469.53
2022-11-05T22:59:09.968Z,101461.09
2022-11-05T23:01:41.259Z,101468.97
2022-11-05T23:04:14.300Z,101475.38
2022-11-05T23:07:03.381Z,101471.31
2022-11-05T23:09:54.462Z,101484.03
2022-11-05T23:12:29.659Z,101485.06
2022-11-05T23:15:01.775Z,101483.75
2022-11-05T23:17:50.180Z,101486.88
2022-11-05T23:20:43.240Z,101487.84
2022-11-05T23:23:32.584Z,101491.84
2022-11-05T23:26:23.004Z,101499.09
2022-11-05T23:28:53.480Z,101507.66
2022-11-05T23:31:55.581Z,101502.81
2022-11-05T23:34:25.998Z,101517.06
2022-11-05T23:37:13.937Z,101515.69
2022-11-05T23:39:44.720Z,101523.66
2022-11-05T23:42:32.978Z,101523.81
2022-11-05T23:45:21.931Z,101521.69
2022-11-05T23:48:10.780Z,101511.66
2022-11-05T23:50:42.080Z,101525.59
2022-11-05T23:53:14.989Z,101527.59
2022-11-05T23:55:45.521Z,101529.34
2022-11-05T23:58:16.334Z,101541.63
